Time;durP1;ratioP1;P1;durP2;ratioP2;P2;SDS_P1;SDS_P2;PMS_P1;PMS_P2;Temp;Humidity;BMP_temperature;BMP_pressure;BME280_temperature;BME280_humidity;BME280_pressure;Samples;Min_cycle;Max_cycle;Signal;HPM_P1;HPM_P2
2021/11/14 00:01:12;;;;;;;5.75;4.97;;;;;;;16.72;56.11;102503.16;1611318;88;21555;-52
2021/11/14 00:03:40;;;;;;;6.35;4.90;;;;;;;16.72;56.04;102493.08;1642032;83;21049;-53
2021/11/14 00:06:07;;;;;;;6.10;5.17;;;;;;;16.71;56.08;102496.62;1733462;81;21038;-56
2021/11/14 00:08:34;;;;;;;9.73;4.50;;;;;;;16.70;55.96;102492.24;1733770;79;21015;-53
2021/11/14 00:11:09;;;;;;;8.90;6.80;;;;;;;16.71;55.85;102496.62;1736744;81;21035;-51
2021/11/14 00:13:38;;;;;;;14.45;12.20;;;;;;;16.73;55.85;102494.35;1710565;83;21030;-51
2021/11/14 00:16:07;;;;;;;18.60;14.68;;;;;;;16.73;56.29;102493.52;1752766;80;21035;-54
2021/11/14 00:18:34;;;;;;;18.35;15.50;;;;;;;16.72;56.64;102489.13;1750535;80;21062;-53
2021/11/14 00:21:01;;;;;;;24.95;19.75;;;;;;;16.69;56.96;102493.16;1752804;80;20979;-54
2021/11/14 00:23:28;;;;;;;26.87;20.77;;;;;;;16.66;57.30;102484.00;1752859;81;21007;-53
2021/11/14 00:25:55;;;;;;;25.48;20.15;;;;;;;16.63;57.40;102490.17;1753832;80;21062;-51
2021/11/14 00:28:22;;;;;;;24.35;19.37;;;;;;;16.60;57.71;102484.13;1752861;80;20976;-53
2021/11/14 00:30:50;;;;;;;25.30;19.25;;;;;;;16.58;57.88;102479.34;1742974;80;21051;-50
2021/11/14 00:33:18;;;;;;;31.35;20.35;;;;;;;16.56;57.96;102477.19;1750456;80;20991;-53
2021/11/14 00:35:44;;;;;;;28.02;19.73;;;;;;;16.54;58.08;102478.98;1750841;79;21050;-52
2021/11/14 00:38:11;;;;;;;25.95;18.77;;;;;;;16.53;58.19;102472.85;1750066;80;21039;-52
2021/11/14 00:40:40;;;;;;;23.50;18.17;;;;;;;16.53;58.11;102469.35;1751210;80;21031;-54
2021/11/14 00:43:06;;;;;;;21.93;18.10;;;;;;;16.51;58.15;102468.08;1747607;80;21543;-54
2021/11/14 00:45:34;;;;;;;24.98;18.80;;;;;;;16.52;58.16;102472.89;1749527;81;21050;-53
2021/11/14 00:48:01;;;;;;;21.95;17.07;;;;;;;16.52;58.09;102468.95;1753700;80;21023;-52
2021/11/14 00:50:28;;;;;;;23.77;17.02;;;;;;;16.51;57.90;102463.26;1754064;80;21077;-55
2021/11/14 00:52:56;;;;;;;18.82;16.27;;;;;;;16.51;57.84;102464.58;1751496;80;21054;-52
2021/11/14 00:55:23;;;;;;;22.85;15.38;;;;;;;16.50;57.74;102456.29;1750602;80;20987;-54
2021/11/14 00:57:49;;;;;;;20.60;16.48;;;;;;;16.48;57.64;102464.17;1751226;80;21049;-53
2021/11/14 01:00:21;;;;;;;25.70;16.57;;;;;;;16.47;57.74;102465.50;1750545;80;21003;-54
2021/11/14 01:02:47;;;;;;;17.57;14.93;;;;;;;16.47;57.97;102461.55;1750956;80;21019;-55
2021/11/14 01:05:15;;;;;;;21.20;16.30;;;;;;;16.47;58.08;102460.23;1752414;80;21066;-53
2021/11/14 01:07:42;;;;;;;20.45;16.52;;;;;;;16.46;58.15;102454.58;1753925;80;21539;-54
2021/11/14 01:10:12;;;;;;;21.23;16.40;;;;;;;16.45;58.24;102456.78;1753730;80;21099;-54
2021/11/14 01:12:39;;;;;;;20.00;15.48;;;;;;;16.42;58.41;102458.17;1748715;81;21034;-51
2021/11/14 01:15:07;;;;;;;17.70;14.28;;;;;;;16.43;58.43;102457.25;1733145;81;21485;-58
2021/11/14 01:17:38;;;;;;;18.05;13.55;;;;;;;16.43;58.50;102457.25;1722809;81;21023;-56
2021/11/14 01:20:05;;;;;;;17.50;14.63;;;;;;;16.43;58.44;102458.56;1729171;82;21050;-54
2021/11/14 01:22:32;;;;;;;17.52;13.72;;;;;;;16.42;58.61;102460.79;1735806;81;21008;-54
2021/11/14 01:24:58;;;;;;;16.75;13.38;;;;;;;16.43;58.56;102457.25;1736086;81;21035;-54
2021/11/14 01:27:25;;;;;;;16.12;13.15;;;;;;;16.44;58.42;102461.63;1733647;81;21020;-57
2021/11/14 01:29:51;;;;;;;17.98;12.47;;;;;;;16.44;58.44;102461.63;1733273;81;21047;-52
2021/11/14 01:32:18;;;;;;;19.40;12.47;;;;;;;16.45;58.48;102460.28;1732124;81;21062;-53
2021/11/14 01:34:44;;;;;;;13.28;10.80;;;;;;;16.46;58.51;102465.09;1734002;81;21539;-51
2021/11/14 01:37:11;;;;;;;12.50;8.93;;;;;;;16.46;58.56;102456.77;1729324;81;21589;-51
2021/11/14 01:39:37;;;;;;;13.53;9.10;;;;;;;16.47;58.33;102454.98;1734473;81;20984;-55
2021/11/14 01:42:05;;;;;;;13.78;9.30;;;;;;;16.45;58.18;102452.39;1696617;84;21022;-54
2021/11/14 01:44:32;;;;;;;13.20;8.70;;;;;;;16.44;57.87;102461.63;1705032;84;21002;-52
2021/11/14 01:46:59;;;;;;;14.33;9.23;;;;;;;16.41;57.84;102459.92;1700792;84;21010;-54
2021/11/14 01:49:25;;;;;;;15.03;9.78;;;;;;;16.40;57.94;102454.70;1700898;84;20979;-54
2021/11/14 01:51:53;;;;;;;18.37;11.28;;;;;;;16.38;57.84;102456.49;1704581;83;21506;-53
2021/11/14 01:54:20;;;;;;;14.25;10.93;;;;;;;16.38;57.87;102457.80;1734609;81;21025;-52
2021/11/14 01:56:47;;;;;;;15.95;12.23;;;;;;;16.39;57.86;102454.27;1733613;82;21004;-53
2021/11/14 01:59:14;;;;;;;14.78;11.53;;;;;;;16.37;57.82;102456.93;1736128;81;21023;-52
2021/11/14 02:01:41;;;;;;;14.38;12.25;;;;;;;16.40;57.80;102457.33;1734078;81;21491;-53
2021/11/14 02:04:08;;;;;;;13.58;10.65;;;;;;;16.39;57.73;102459.52;1731657;81;21544;-54
2021/11/14 02:06:36;;;;;;;13.80;10.98;;;;;;;16.38;57.83;102461.75;1731394;81;21058;-54
2021/11/14 02:09:04;;;;;;;15.23;11.78;;;;;;;16.38;57.90;102459.12;1732965;81;21019;-51
2021/11/14 02:11:31;;;;;;;16.70;12.23;;;;;;;16.37;57.92;102462.62;1732423;81;21094;-50
2021/11/14 02:13:57;;;;;;;15.28;11.85;;;;;;;16.36;57.61;102460.47;1734508;80;20959;-51
2021/11/14 02:16:27;;;;;;;18.00;12.40;;;;;;;16.33;57.56;102455.25;1736756;81;20979;-51
2021/11/14 02:18:53;;;;;;;20.23;12.55;;;;;;;16.30;57.68;102458.80;1734977;81;21414;-53
2021/11/14 02:21:21;;;;;;;15.60;12.13;;;;;;;16.28;57.64;102452.70;1734181;81;21030;-53
2021/11/14 02:23:48;;;;;;;13.08;11.35;;;;;;;16.27;57.80;102452.30;1732326;81;21054;-53
2021/11/14 02:26:15;;;;;;;18.92;12.28;;;;;;;16.28;57.72;102450.08;1734080;82;21507;-52
2021/11/14 02:28:41;;;;;;;12.75;11.22;;;;;;;16.27;57.52;102456.69;1734359;81;21514;-52
2021/11/14 02:31:08;;;;;;;16.27;12.35;;;;;;;16.27;57.56;102454.94;1735185;81;20983;-55
2021/11/14 02:33:36;;;;;;;14.07;11.33;;;;;;;16.26;57.63;102471.57;1732482;81;21464;-54
2021/11/14 02:36:06;;;;;;;15.98;11.53;;;;;;;16.26;57.51;102457.13;1732288;81;20987;-53
2021/11/14 02:38:33;;;;;;;18.10;12.30;;;;;;;16.24;57.46;102456.73;1732471;81;20967;-53
2021/11/14 02:41:00;;;;;;;15.93;11.20;;;;;;;16.23;57.53;102462.45;1730955;81;21007;-54
2021/11/14 02:43:27;;;;;;;13.43;11.33;;;;;;;16.23;57.64;102461.58;1731815;81;21009;-54
2021/11/14 02:45:54;;;;;;;16.02;10.88;;;;;;;16.21;57.63;102465.55;1730772;81;21052;-53
2021/11/14 02:48:20;;;;;;;15.88;11.60;;;;;;;16.22;57.46;102462.02;1733678;82;21018;-53
2021/11/14 02:50:49;;;;;;;15.70;11.30;;;;;;;16.22;57.43;102460.70;1733810;81;20984;-55
2021/11/14 02:53:15;;;;;;;11.70;9.90;;;;;;;16.21;57.47;102460.30;1734628;81;21018;-54
2021/11/14 02:55:42;;;;;;;17.30;12.98;;;;;;;16.21;57.48;102453.73;1733263;81;21007;-52
2021/11/14 02:58:08;;;;;;;14.20;11.57;;;;;;;16.22;57.79;102452.83;1730988;81;21031;-53
2021/11/14 03:00:41;;;;;;;13.98;9.38;;;;;;;16.24;57.89;102456.29;1732486;81;21511;-52
2021/11/14 03:03:07;;;;;;;14.30;10.75;;;;;;;16.24;57.49;102454.97;1696136;84;21494;-52
2021/11/14 03:05:35;;;;;;;17.07;10.60;;;;;;;16.24;57.50;102452.34;1731456;81;21031;-53
2021/11/14 03:08:01;;;;;;;14.13;10.23;;;;;;;16.27;57.50;102457.56;1711879;81;21058;-56
2021/11/14 03:10:30;;;;;;;13.85;9.38;;;;;;;16.26;57.27;102449.69;1733198;81;21023;-52
2021/11/14 03:13:08;;;;;;;11.50;9.50;;;;;;;16.25;57.21;102449.28;1733881;81;21051;-54
2021/11/14 03:15:38;;;;;;;14.30;9.73;;;;;;;16.24;57.25;102447.09;1733655;82;21577;-51
2021/11/14 03:18:05;;;;;;;11.63;8.98;;;;;;;16.23;57.20;102445.81;1696685;84;21063;-50
2021/11/14 03:20:32;;;;;;;11.15;8.75;;;;;;;16.21;57.20;102443.23;1702963;84;20966;-53
2021/11/14 03:22:58;;;;;;;13.68;9.45;;;;;;;16.20;57.12;102440.16;1699198;84;21057;-56
2021/11/14 03:25:27;;;;;;;10.68;8.55;;;;;;;16.20;57.00;102449.80;1698116;84;21038;-51
2021/11/14 03:27:55;;;;;;;14.58;9.03;;;;;;;16.17;57.08;102446.80;1697585;84;21006;-50
2021/11/14 03:30:23;;;;;;;11.90;8.98;;;;;;;16.18;57.33;102453.77;1705187;83;21021;-52
2021/11/14 03:32:51;;;;;;;9.48;7.95;;;;;;;16.19;57.59;102456.84;1702521;83;21022;-53
2021/11/14 03:35:18;;;;;;;13.83;7.40;;;;;;;16.18;57.47;102450.27;1699032;83;21030;-54
2021/11/14 03:37:46;;;;;;;12.07;8.20;;;;;;;16.17;57.38;102448.13;1700511;83;21050;-55
2021/11/14 03:40:13;;;;;;;14.00;8.00;;;;;;;16.17;57.37;102444.17;1700822;84;21010;-54
2021/11/14 03:42:39;;;;;;;15.43;8.15;;;;;;;16.21;57.60;102444.98;1699173;84;21069;-53
2021/11/14 03:45:08;;;;;;;10.25;7.67;;;;;;;16.21;57.87;102447.17;1698339;83;21109;-55
2021/11/14 03:47:36;;;;;;;8.05;7.22;;;;;;;16.22;58.03;102447.57;1698723;84;20995;-53
2021/11/14 03:50:04;;;;;;;11.90;8.00;;;;;;;16.24;58.16;102451.03;1697721;83;21530;-53
2021/11/14 03:52:31;;;;;;;9.95;7.70;;;;;;;16.25;58.25;102451.91;1697552;83;20967;-50
2021/11/14 03:54:58;;;;;;;12.00;7.62;;;;;;;16.24;58.30;102454.09;1697709;84;21030;-54
2021/11/14 03:57:25;;;;;;;8.05;6.75;;;;;;;16.24;58.22;102456.73;1697827;83;21038;-51
2021/11/14 03:59:52;;;;;;;14.80;7.33;;;;;;;16.23;58.21;102456.33;1699632;84;21049;-52
2021/11/14 04:02:18;;;;;;;11.08;7.05;;;;;;;16.21;58.34;102455.05;1696511;84;21502;-53
2021/11/14 04:04:45;;;;;;;11.55;7.53;;;;;;;16.21;58.40;102457.67;1700714;84;21562;-53
2021/11/14 04:07:11;;;;;;;11.48;7.47;;;;;;;16.19;58.39;102454.20;1699927;84;21069;-54
2021/11/14 04:09:39;;;;;;;10.95;7.17;;;;;;;16.17;58.39;102458.62;1693535;83;21080;-52
2021/11/14 04:12:08;;;;;;;10.23;7.17;;;;;;;16.16;58.47;102462.12;1696804;83;21029;-51
2021/11/14 04:14:34;;;;;;;10.30;6.75;;;;;;;16.14;58.66;102463.91;1696990;84;21018;-53
2021/11/14 04:17:01;;;;;;;11.88;6.92;;;;;;;16.12;58.82;102459.14;1700457;83;21502;-53
2021/11/14 04:19:27;;;;;;;10.90;7.10;;;;;;;16.13;59.02;102466.58;1701547;83;21042;-53
2021/11/14 04:21:55;;;;;;;9.05;6.70;;;;;;;16.12;58.99;102470.08;1697364;84;21085;-52
2021/11/14 04:24:22;;;;;;;8.85;6.47;;;;;;;16.12;59.05;102468.33;1688495;84;20987;-54
2021/11/14 04:26:50;;;;;;;11.78;6.65;;;;;;;16.11;59.22;102462.67;1700136;83;21041;-52
2021/11/14 04:29:19;;;;;;;9.53;6.60;;;;;;;16.12;59.10;102465.70;1700636;84;21014;-53
2021/11/14 04:31:45;;;;;;;7.47;5.70;;;;;;;16.12;58.96;102467.45;1700141;84;21044;-53
2021/11/14 04:34:12;;;;;;;5.97;5.37;;;;;;;16.18;58.74;102472.16;1698022;83;21014;-54
2021/11/14 04:36:40;;;;;;;8.90;5.97;;;;;;;16.16;58.62;102466.06;1699385;83;21082;-51
2021/11/14 04:39:06;;;;;;;6.08;5.33;;;;;;;16.12;58.81;102470.95;1701067;84;21026;-54
2021/11/14 04:41:33;;;;;;;8.13;5.20;;;;;;;16.09;58.71;102467.52;1699118;84;21062;-52
2021/11/14 04:43:59;;;;;;;8.50;5.53;;;;;;;16.10;58.45;102467.49;1697226;84;21041;-54
2021/11/14 04:46:25;;;;;;;7.67;5.10;;;;;;;16.08;58.32;102461.40;1693517;83;20998;-53
2021/11/14 04:48:52;;;;;;;8.13;5.10;;;;;;;16.07;58.21;102468.84;1701068;84;21038;-52
2021/11/14 04:51:18;;;;;;;6.33;4.87;;;;;;;16.07;58.33;102466.22;1698470;84;21038;-54
2021/11/14 04:53:45;;;;;;;5.78;4.95;;;;;;;16.05;58.20;102468.00;1699458;83;21570;-50
2021/11/14 04:56:11;;;;;;;6.78;4.75;;;;;;;16.02;58.28;102469.39;1699883;84;21002;-52
2021/11/14 04:58:38;;;;;;;6.50;4.62;;;;;;;16.00;58.45;102473.80;1700697;84;21042;-53
2021/11/14 05:01:05;;;;;;;11.90;4.75;;;;;;;16.00;58.36;102471.17;1700548;84;21054;-50
2021/11/14 05:03:32;;;;;;;5.83;4.60;;;;;;;15.98;58.63;102478.20;1698309;84;21034;-52
2021/11/14 05:05:59;;;;;;;10.05;5.10;;;;;;;15.98;58.76;102476.89;1688097;83;20971;-53
2021/11/14 05:08:27;;;;;;;8.70;4.72;;;;;;;15.97;58.68;102473.83;1679573;84;21038;-53
2021/11/14 05:10:54;;;;;;;6.72;4.22;;;;;;;15.97;58.69;102477.77;1739559;81;21503;-52
2021/11/14 05:13:20;;;;;;;8.73;5.03;;;;;;;15.97;58.56;102481.71;1724007;81;21144;-51
2021/11/14 05:15:48;;;;;;;8.33;4.65;;;;;;;15.98;58.49;102484.77;1739204;81;21588;-54
2021/11/14 05:18:14;;;;;;;8.80;4.60;;;;;;;15.98;58.64;102480.83;1733038;82;21490;-54
2021/11/14 05:20:41;;;;;;;5.90;5.10;;;;;;;16.02;58.72;102485.14;1735961;81;21530;-51
2021/11/14 05:23:08;;;;;;;10.93;4.72;;;;;;;16.04;58.89;102488.61;1735630;81;21022;-53
2021/11/14 05:25:36;;;;;;;7.80;5.62;;;;;;;16.06;58.75;102493.39;1732507;81;21004;-53
2021/11/14 05:28:04;;;;;;;7.67;5.62;;;;;;;16.08;58.71;102499.91;1732236;81;21108;-54
2021/11/14 05:30:31;;;;;;;6.25;5.65;;;;;;;16.07;58.74;102492.47;1731463;81;21031;-51
2021/11/14 05:32:57;;;;;;;8.65;5.97;;;;;;;16.07;58.80;102495.09;1731970;81;21007;-52
2021/11/14 05:35:24;;;;;;;8.05;6.10;;;;;;;16.08;58.82;102489.41;1730499;81;21004;-52
2021/11/14 05:37:50;;;;;;;10.78;6.75;;;;;;;16.09;58.81;102502.50;1733913;81;21035;-50
2021/11/14 05:40:16;;;;;;;10.13;6.42;;;;;;;16.10;58.70;102495.06;1738737;81;21039;-53
2021/11/14 05:42:44;;;;;;;8.98;6.75;;;;;;;16.11;58.70;102508.63;1733617;81;21027;-53
2021/11/14 05:45:10;;;;;;;8.93;7.12;;;;;;;16.12;58.60;102509.47;1733334;81;21007;-50
2021/11/14 05:47:37;;;;;;;12.68;7.42;;;;;;;16.11;58.46;102512.57;1735226;81;21014;-53
2021/11/14 05:50:05;;;;;;;9.93;6.45;;;;;;;16.12;58.28;102506.84;1734269;81;21035;-54
2021/11/14 05:52:32;;;;;;;13.13;7.35;;;;;;;16.12;58.18;102509.03;1732009;81;21007;-55
2021/11/14 05:54:58;;;;;;;10.43;7.35;;;;;;;16.13;58.15;102513.41;1731870;81;21046;-52
2021/11/14 05:57:25;;;;;;;10.03;8.05;;;;;;;16.12;57.85;102522.16;1731457;81;21015;-52
2021/11/14 06:05:11;;;;;;;13.05;8.90;;;;;;;16.09;57.94;102527.92;1681617;85;21110;-53
2021/11/14 06:07:30;;;;;;;9.83;8.35;;;;;;;16.10;58.01;102530.95;1680141;84;21631;-52
2021/11/14 06:09:57;;;;;;;12.45;9.08;;;;;;;16.12;58.01;102537.92;1650319;87;21552;-56
2021/11/14 06:12:24;;;;;;;10.28;7.78;;;;;;;16.12;57.88;102526.11;1684244;85;21023;-53
2021/11/14 06:14:51;;;;;;;12.35;8.48;;;;;;;16.12;57.56;102527.42;1675268;85;21107;-50
2021/11/14 06:17:20;;;;;;;16.27;8.95;;;;;;;16.11;57.54;102533.58;1674021;86;21067;-54
2021/11/14 06:19:48;;;;;;;12.18;9.10;;;;;;;16.11;57.79;102530.95;1674148;86;21051;-54
2021/11/14 06:22:17;;;;;;;13.00;9.83;;;;;;;16.12;57.78;102540.55;1674210;86;21559;-55
2021/11/14 06:24:45;;;;;;;10.95;9.45;;;;;;;16.13;57.97;102543.61;1674248;86;21071;-52
2021/11/14 06:27:11;;;;;;;13.05;9.53;;;;;;;16.14;58.29;102545.33;1674297;86;20967;-51
2021/11/14 06:29:38;;;;;;;17.75;10.35;;;;;;;16.15;58.18;102554.08;1674374;86;21074;-53
2021/11/14 06:32:06;;;;;;;12.30;9.30;;;;;;;16.14;58.28;102547.08;1674438;86;21011;-50
2021/11/14 06:34:33;;;;;;;12.78;10.20;;;;;;;16.14;57.98;102549.70;1674309;86;20987;-53
2021/11/14 06:36:59;;;;;;;16.23;9.90;;;;;;;16.12;57.77;102547.11;1674055;86;21051;-51
2021/11/14 06:39:26;;;;;;;16.27;10.08;;;;;;;16.11;57.68;102553.28;1674277;86;21095;-51
2021/11/14 06:41:52;;;;;;;12.37;9.13;;;;;;;16.11;57.66;102540.14;1674131;86;21066;-52
2021/11/14 06:44:18;;;;;;;11.55;8.55;;;;;;;16.11;57.44;102542.77;1674480;86;20995;-53
2021/11/14 06:46:45;;;;;;;13.22;8.80;;;;;;;16.09;57.45;102539.27;1674434;86;21003;-54
2021/11/14 06:49:11;;;;;;;11.18;8.60;;;;;;;16.09;57.69;102537.95;1674392;86;21090;-51
2021/11/14 06:51:38;;;;;;;15.58;9.03;;;;;;;16.10;57.61;102539.70;1674045;86;21012;-53
2021/11/14 06:54:05;;;;;;;11.93;8.93;;;;;;;16.09;57.71;102541.89;1674251;86;21066;-52
2021/11/14 06:56:32;;;;;;;12.28;8.88;;;;;;;16.11;57.68;102534.89;1674160;86;21067;-53
2021/11/14 06:58:59;;;;;;;11.60;8.80;;;;;;;16.12;57.59;102539.23;1708900;82;21049;-53
2021/11/14 07:01:25;;;;;;;9.33;7.58;;;;;;;16.12;57.66;102536.61;1726223;82;21065;-54
2021/11/14 07:03:52;;;;;;;11.68;7.80;;;;;;;16.15;57.35;102533.95;1734139;81;20989;-55
2021/11/14 07:06:18;;;;;;;11.05;8.18;;;;;;;16.15;57.25;102538.33;1729285;81;21002;-53
2021/11/14 07:08:45;;;;;;;11.60;7.58;;;;;;;16.16;57.31;102535.66;1728479;81;21051;-50
2021/11/14 07:11:12;;;;;;;16.15;7.90;;;;;;;16.19;57.25;102528.19;1728552;81;20986;-52
2021/11/14 07:13:38;;;;;;;13.55;7.72;;;;;;;16.22;57.25;102532.94;1730805;81;21019;-52
2021/11/14 07:16:07;;;;;;;9.80;7.50;;;;;;;16.25;57.12;102530.70;1730323;81;21067;-56
2021/11/14 07:18:34;;;;;;;9.93;7.40;;;;;;;16.25;56.91;102525.02;1733702;81;21540;-52
2021/11/14 07:21:00;;;;;;;8.60;7.20;;;;;;;16.28;57.00;102526.27;1734018;81;21459;-52
2021/11/14 07:23:27;;;;;;;11.65;7.45;;;;;;;16.30;56.91;102521.84;1700560;84;21026;-52
2021/11/14 07:25:53;;;;;;;12.37;6.90;;;;;;;16.34;56.78;102524.44;1694334;84;21038;-53
2021/11/14 07:28:20;;;;;;;11.55;7.60;;;;;;;16.35;57.08;102520.45;1698152;84;20975;-52
2021/11/14 07:30:46;;;;;;;10.10;7.53;;;;;;;16.37;56.98;102532.25;1696933;84;21026;-53
2021/11/14 07:33:13;;;;;;;9.05;7.85;;;;;;;16.39;56.76;102531.77;1700707;84;21018;-52
2021/11/14 07:35:40;;;;;;;12.28;8.23;;;;;;;16.40;56.58;102523.02;1698676;84;21093;-52
2021/11/14 07:38:07;;;;;;;11.68;8.58;;;;;;;16.39;56.73;102522.58;1699300;84;21121;-54
2021/11/14 07:40:33;;;;;;;12.18;7.78;;;;;;;16.39;56.91;102519.95;1699996;83;21029;-52
2021/11/14 07:43:00;;;;;;;10.65;7.95;;;;;;;16.40;56.89;102525.20;1701071;84;20990;-50
2021/11/14 07:45:27;;;;;;;12.98;8.05;;;;;;;16.40;56.70;102523.02;1700394;84;20994;-54
2021/11/14 07:47:54;;;;;;;11.28;8.73;;;;;;;16.41;56.55;102523.41;1698623;83;21502;-52
2021/11/14 07:50:24;;;;;;;12.68;8.83;;;;;;;16.38;56.66;102522.17;1697882;84;21434;-51
2021/11/14 07:52:51;;;;;;;13.08;8.83;;;;;;;16.38;56.89;102522.17;1697728;84;21466;-51
2021/11/14 07:55:17;;;;;;;15.53;9.18;;;;;;;16.39;57.19;102516.01;1698389;84;21010;-53
2021/11/14 07:57:44;;;;;;;11.63;9.20;;;;;;;16.42;57.03;102519.47;1698332;84;20984;-53
2021/11/14 08:00:15;;;;;;;9.50;7.90;;;;;;;16.46;56.84;102522.46;1700673;84;21510;-50
2021/11/14 08:02:41;;;;;;;12.40;8.78;;;;;;;16.49;56.60;102512.31;1634070;87;21077;-56
2021/11/14 08:05:09;;;;;;;12.80;8.15;;;;;;;16.51;56.43;102518.44;1637587;87;21622;-53
2021/11/14 08:07:36;;;;;;;15.15;8.43;;;;;;;16.53;56.45;102522.78;1671274;84;21018;-53
2021/11/14 08:10:05;;;;;;;21.90;8.93;;;;;;;16.58;56.34;102527.96;1657533;84;21037;-53
2021/11/14 08:12:31;;;;;;;14.07;8.45;;;;;;;16.62;56.42;102529.64;1667176;84;21021;-51
2021/11/14 08:14:58;;;;;;;11.93;8.38;;;;;;;16.66;56.20;102530.00;1664395;85;21053;-54
2021/11/14 08:17:25;;;;;;;12.93;8.68;;;;;;;16.68;56.31;102526.45;1664625;84;20989;-52
2021/11/14 08:19:52;;;;;;;10.10;7.22;;;;;;;16.71;56.43;102530.31;1660057;84;20994;-54
2021/11/14 08:22:19;;;;;;;12.80;8.63;;;;;;;16.76;56.28;102534.18;1662710;84;21018;-52
2021/11/14 08:24:46;;;;;;;11.78;8.13;;;;;;;16.81;56.02;102529.72;1664625;85;21584;-53
2021/11/14 08:27:13;;;;;;;12.13;8.30;;;;;;;16.86;55.66;102539.67;1658572;84;21014;-52
2021/11/14 08:29:40;;;;;;;12.30;7.80;;;;;;;16.88;55.40;102536.13;1665906;84;21076;-52
2021/11/14 08:32:08;;;;;;;9.68;7.62;;;;;;;16.89;55.22;102540.50;1668479;84;21074;-51
2021/11/14 08:34:36;;;;;;;12.23;7.95;;;;;;;16.90;55.36;102536.97;1668312;84;21054;-51
2021/11/14 08:37:04;;;;;;;10.90;8.20;;;;;;;16.91;55.61;102533.89;1667396;84;21084;-52
2021/11/14 08:39:30;;;;;;;13.72;8.10;;;;;;;16.95;55.69;102536.88;1666425;84;21038;-52
2021/11/14 08:41:56;;;;;;;12.13;7.75;;;;;;;16.96;55.38;102533.38;1667893;85;21557;-51
2021/11/14 08:44:25;;;;;;;11.88;8.28;;;;;;;16.97;55.41;102540.34;1668398;84;21585;-52
2021/11/14 08:46:53;;;;;;;11.68;9.35;;;;;;;16.97;55.53;102540.34;1668570;84;21494;-52
2021/11/14 08:49:19;;;;;;;10.90;7.53;;;;;;;16.98;55.61;102539.47;1667370;84;21486;-53
2021/11/14 08:51:45;;;;;;;11.65;8.68;;;;;;;16.97;55.69;102532.45;1665817;84;21577;-53
2021/11/14 08:54:12;;;;;;;10.08;7.75;;;;;;;16.96;55.80;102536.00;1665580;84;21526;-52
2021/11/14 08:56:39;;;;;;;11.60;7.72;;;;;;;16.96;55.82;102535.53;1659781;84;21521;-53
2021/11/14 08:59:08;;;;;;;11.12;7.53;;;;;;;16.95;55.89;102533.81;1667692;85;21017;-50
2021/11/14 09:01:37;;;;;;;10.10;7.90;;;;;;;16.96;55.87;102533.38;1668573;84;21045;-53
2021/11/14 09:04:07;;;;;;;11.63;7.65;;;;;;;16.98;55.82;102534.20;1668318;84;21029;-57
2021/11/14 09:06:37;;;;;;;9.38;7.58;;;;;;;17.00;55.70;102534.56;1712150;81;21067;-53
2021/11/14 09:09:05;;;;;;;10.60;7.58;;;;;;;17.00;55.54;102537.20;1733646;81;21035;-54
2021/11/14 09:11:32;;;;;;;13.05;7.95;;;;;;;16.96;55.44;102542.58;1733358;81;21063;-52
2021/11/14 09:13:58;;;;;;;12.47;6.83;;;;;;;16.95;55.48;102538.20;1733832;81;21023;-53
2021/11/14 09:16:28;;;;;;;10.43;7.22;;;;;;;16.95;55.59;102531.18;1731052;81;21059;-53
2021/11/14 09:18:58;;;;;;;14.33;8.38;;;;;;;16.92;55.41;102538.23;1736511;81;21043;-55
2021/11/14 09:21:25;;;;;;;11.00;7.15;;;;;;;16.89;55.59;102531.75;1735061;81;21010;-51
2021/11/14 09:23:53;;;;;;;16.65;7.67;;;;;;;16.90;55.77;102530.83;1732683;82;21050;-53
2021/11/14 09:26:19;;;;;;;14.13;7.33;;;;;;;16.94;55.84;102524.61;1723432;81;20955;-52
2021/11/14 09:28:46;;;;;;;10.23;7.30;;;;;;;16.98;55.86;102521.89;1736527;81;21031;-55
2021/11/14 09:31:13;;;;;;;9.78;6.70;;;;;;;17.04;55.77;102510.41;1736265;81;20992;-53
2021/11/14 09:33:40;;;;;;;10.63;6.90;;;;;;;17.07;55.54;102507.70;1733487;81;21038;-53
2021/11/14 09:36:07;;;;;;;9.25;6.67;;;;;;;17.09;55.49;102504.59;1735245;81;21050;-53
2021/11/14 09:38:35;;;;;;;10.93;7.62;;;;;;;17.12;55.48;102501.03;1735570;81;21038;-52
2021/11/14 09:41:03;;;;;;;7.58;6.20;;;;;;;17.13;55.33;102499.67;1731303;81;21398;-52
2021/11/14 09:43:31;;;;;;;9.13;6.65;;;;;;;17.14;55.04;102501.42;1677970;84;21081;-56
2021/11/14 09:45:59;;;;;;;8.73;6.17;;;;;;;17.16;54.87;102490.86;1698079;83;20966;-52
2021/11/14 09:48:26;;;;;;;9.18;6.35;;;;;;;17.14;54.64;102498.80;1698010;83;21082;-51
2021/11/14 09:50:59;;;;;;;10.53;7.35;;;;;;;17.15;54.59;102496.56;1699932;83;21006;-53
2021/11/14 09:53:28;;;;;;;9.08;6.08;;;;;;;17.17;54.29;102493.45;1697047;84;20986;-51
2021/11/14 09:55:57;;;;;;;10.40;6.92;;;;;;;17.17;54.23;102493.45;1696038;84;21455;-51
2021/11/14 09:58:24;;;;;;;10.40;6.60;;;;;;;17.16;54.22;102484.28;1697956;83;21034;-52
2021/11/14 10:00:51;;;;;;;10.43;7.40;;;;;;;17.13;54.20;102493.09;1698294;84;21038;-51
2021/11/14 10:03:19;;;;;;;10.93;6.53;;;;;;;17.10;54.26;102487.45;1697673;83;21522;-54
2021/11/14 10:05:48;;;;;;;13.00;9.88;;;;;;;17.09;54.40;102485.73;1699628;83;21065;-54
2021/11/14 10:08:15;;;;;;;19.62;11.40;;;;;;;17.10;54.68;102489.23;1701131;84;20998;-54
2021/11/14 10:10:53;;;;;;;15.32;11.12;;;;;;;17.13;55.06;102481.27;1736400;81;21466;-52
2021/11/14 10:13:31;;;;;;;17.75;11.40;;;;;;;17.18;55.10;102484.67;1740050;81;21006;-50
2021/11/14 10:16:13;;;;;;;12.28;10.58;;;;;;;17.20;54.95;102484.19;1741402;81;21015;-54
2021/11/14 10:18:51;;;;;;;18.73;10.80;;;;;;;17.20;54.83;102482.88;1740952;81;21043;-51
2021/11/14 10:21:19;;;;;;;18.52;11.45;;;;;;;17.23;54.94;102480.16;1729003;81;21711;-53
2021/11/14 10:23:46;;;;;;;16.90;12.10;;;;;;;17.25;54.85;102480.99;1732434;81;21047;-51
2021/11/14 10:26:12;;;;;;;18.25;11.33;;;;;;;17.28;55.07;102476.99;1734831;81;21015;-52
2021/11/14 10:28:41;;;;;;;17.20;12.30;;;;;;;17.33;54.88;102476.42;1731924;81;21054;-53
2021/11/14 10:31:08;;;;;;;19.65;13.00;;;;;;;17.33;54.80;102475.11;1732179;81;22199;-53
2021/11/14 10:33:39;;;;;;;17.55;12.70;;;;;;;17.33;54.81;102473.80;1734070;81;21027;-52
2021/11/14 10:36:05;;;;;;;17.25;12.68;;;;;;;17.37;54.56;102470.19;1730660;81;20979;-53
2021/11/14 10:38:41;;;;;;;15.48;12.23;;;;;;;17.42;54.25;102477.55;1731229;81;21015;-53
2021/11/14 10:41:12;;;;;;;16.27;12.68;;;;;;;17.45;54.10;102481.44;1730842;81;21542;-53
2021/11/14 10:43:40;;;;;;;17.85;11.93;;;;;;;17.47;53.89;102469.11;1730618;81;21054;-53
2021/11/14 10:46:20;;;;;;;19.85;12.73;;;;;;;17.47;54.09;102467.80;1732995;81;21546;-51
2021/11/14 10:48:48;;;;;;;19.73;11.83;;;;;;;17.47;53.86;102457.70;1739763;81;21558;-53
2021/11/14 10:51:14;;;;;;;14.47;11.00;;;;;;;17.45;53.91;102465.65;1740080;82;21503;-52
2021/11/14 10:53:45;;;;;;;16.27;11.80;;;;;;;17.43;53.69;102460.87;1738721;81;21071;-54
2021/11/14 10:56:12;;;;;;;14.28;11.05;;;;;;;17.43;53.50;102463.50;1732073;81;21000;-51
2021/11/14 10:58:42;;;;;;;13.88;11.95;;;;;;;17.42;53.33;102460.44;1732171;81;21010;-53
2021/11/14 11:01:12;;;;;;;12.20;10.93;;;;;;;17.42;53.24;102455.17;1730947;81;21527;-53
2021/11/14 11:03:49;;;;;;;19.65;11.80;;;;;;;17.38;53.22;102452.20;1732710;81;21628;-50
2021/11/14 11:06:27;;;;;;;17.05;12.00;;;;;;;17.36;53.13;102447.42;1732608;81;21038;-58
2021/11/14 11:09:03;;;;;;;16.62;11.40;;;;;;;17.36;53.34;102448.74;1739961;81;21050;-53
2021/11/14 11:11:43;;;;;;;16.82;11.80;;;;;;;17.37;53.29;102451.77;1737951;81;20960;-51
2021/11/14 11:14:11;;;;;;;15.93;11.95;;;;;;;17.37;53.37;102447.82;1728635;81;20995;-50
2021/11/14 11:16:38;;;;;;;18.30;12.03;;;;;;;17.36;53.45;102447.42;1735925;81;21535;-53
2021/11/14 11:19:12;;;;;;;19.32;12.30;;;;;;;17.37;53.48;102449.14;1734029;81;21053;-53
2021/11/14 11:21:45;;;;;;;16.65;11.78;;;;;;;17.36;53.45;102447.87;1733178;81;21066;-51
2021/11/14 11:24:16;;;;;;;20.88;12.53;;;;;;;17.33;53.41;102444.84;1732634;81;21006;-51